Time;durP1;ratioP1;P1;durP2;ratioP2;P2;SDS_P1;SDS_P2;PMS_P1;PMS_P2;Temp;Humidity;BMP_temperature;BMP_pressure;BME280_temperature;BME280_humidity;BME280_pressure;Samples;Min_cycle;Max_cycle;Signal;HPM_P1;HPM_P2
2022/02/16 00:01:12;;;;;;;14.70;7.78;;;;;;;-5.39;70.20;100255.91;4949001;29;20038;-82
2022/02/16 00:03:38;;;;;;;28.73;12.27;;;;;;;-5.42;70.29;100244.63;4954838;28;20418;-86
2022/02/16 00:06:04;;;;;;;24.50;10.52;;;;;;;-5.51;70.59;100253.31;4924898;29;20089;-86
2022/02/16 00:08:30;;;;;;;23.40;10.80;;;;;;;-5.43;70.68;100248.09;4924220;29;20058;-88
2022/02/16 00:10:56;;;;;;;19.30;10.50;;;;;;;-5.32;70.26;100256.78;4956967;29;20051;-83
2022/02/16 00:13:22;;;;;;;25.05;11.38;;;;;;;-5.29;70.32;100267.19;4924552;29;20035;-86
2022/02/16 00:15:48;;;;;;;25.08;10.85;;;;;;;-5.29;70.43;100250.69;4924420;29;20070;-88
2022/02/16 00:18:14;;;;;;;27.38;12.15;;;;;;;-5.29;70.35;100266.34;4924583;29;20082;-88
2022/02/16 00:20:40;;;;;;;21.83;11.15;;;;;;;-5.26;70.34;100248.97;4940566;29;20074;-93
2022/02/16 00:23:07;;;;;;;22.30;11.18;;;;;;;-5.18;69.66;100259.38;4940412;29;20047;-85
2022/02/16 00:25:33;;;;;;;25.00;11.02;;;;;;;-5.25;69.67;100255.91;4957473;28;20050;-88
2022/02/16 00:27:59;;;;;;;24.50;12.15;;;;;;;-5.36;69.73;100255.03;4908498;29;20046;-87
2022/02/16 00:30:26;;;;;;;24.42;11.50;;;;;;;-5.25;69.76;100263.72;4908756;29;20043;-87
2022/02/16 00:32:53;;;;;;;23.58;9.98;;;;;;;-5.42;69.75;100270.66;4939971;28;20047;-88
2022/02/16 00:35:19;;;;;;;22.45;10.55;;;;;;;-5.51;70.22;100270.69;4923490;29;20467;-88
2022/02/16 00:37:45;;;;;;;19.42;8.77;;;;;;;-5.60;70.57;100268.97;4956114;28;20101;-89
2022/02/16 00:40:11;;;;;;;29.80;12.60;;;;;;;-5.54;70.34;100268.06;4939914;29;20070;-87
2022/02/16 00:42:37;;;;;;;27.58;12.07;;;;;;;-5.51;70.52;100274.16;4939590;29;20081;-86
2022/02/16 00:45:05;;;;;;;22.92;9.68;;;;;;;-5.46;70.34;100279.34;4940610;29;20047;-85
2022/02/16 00:47:34;;;;;;;25.38;11.07;;;;;;;-5.56;70.57;100281.09;4924791;28;20133;-86
2022/02/16 00:50:00;;;;;;;25.00;11.07;;;;;;;-5.41;70.49;100273.28;4909587;29;20139;-87
2022/02/16 00:52:26;;;;;;;28.98;11.30;;;;;;;-5.47;70.52;100277.63;4941163;29;20086;-86
2022/02/16 00:54:52;;;;;;;26.77;12.40;;;;;;;-5.48;70.22;100265.47;4941678;29;20055;-87
2022/02/16 00:57:19;;;;;;;25.90;11.57;;;;;;;-5.39;70.35;100275.88;4957646;29;20047;-85
2022/02/16 00:59:45;;;;;;;24.35;11.93;;;;;;;-5.33;69.95;100275.88;4958382;28;20510;-89
2022/02/16 01:02:11;;;;;;;21.70;8.68;;;;;;;-5.50;69.90;100269.81;4959823;28;20086;-87
2022/02/16 01:04:37;;;;;;;26.67;11.75;;;;;;;-5.63;70.11;100272.41;4927959;29;20050;-89
2022/02/16 01:07:04;;;;;;;21.70;11.38;;;;;;;-5.55;70.35;100269.81;4956687;28;20058;-87
2022/02/16 01:09:32;;;;;;;29.13;11.93;;;;;;;-5.51;70.36;100270.69;4947911;28;20043;-85
2022/02/16 01:11:58;;;;;;;26.10;12.13;;;;;;;-5.50;70.37;100268.06;4935767;29;20283;-85
2022/02/16 01:14:30;;;;;;;23.85;11.45;;;;;;;-5.43;70.36;100276.75;4989348;28;20111;-85
2022/02/16 01:17:11;;;;;;;29.15;12.10;;;;;;;-5.39;70.05;100276.75;4974420;28;20082;-85
2022/02/16 01:20:13;;;;;;;28.33;12.63;;;;;;;-5.30;69.76;100282.81;4946901;29;20047;-88
2022/02/16 01:22:41;;;;;;;27.60;11.07;;;;;;;-5.30;69.69;100275.91;4953711;28;20058;-84
2022/02/16 01:25:14;;;;;;;27.90;12.15;;;;;;;-5.31;69.27;100270.66;4961231;29;20511;-84
2022/02/16 01:27:41;;;;;;;32.85;13.15;;;;;;;-5.27;69.41;100262.84;4925578;29;20510;-84
2022/02/16 01:30:08;;;;;;;25.73;12.20;;;;;;;-5.27;69.04;100264.56;4954911;28;20103;-87
2022/02/16 01:33:10;;;;;;;27.67;12.63;;;;;;;-5.30;69.00;100260.25;4918300;29;20054;-85
2022/02/16 01:35:49;;;;;;;27.73;12.23;;;;;;;-5.25;69.22;100260.25;4935531;29;20067;-85
2022/02/16 01:38:15;;;;;;;29.00;13.20;;;;;;;-5.22;69.30;100262.84;4954137;28;20507;-85
2022/02/16 01:40:48;;;;;;;26.38;13.00;;;;;;;-5.18;69.44;100270.66;4908640;28;20043;-86
2022/02/16 01:43:16;;;;;;;30.90;13.32;;;;;;;-5.14;69.12;100285.41;4970552;28;20094;-87
2022/02/16 01:45:45;;;;;;;25.90;13.40;;;;;;;-5.21;68.72;100281.09;4954436;28;20070;-86
2022/02/16 01:48:16;;;;;;;29.98;14.43;;;;;;;-5.13;68.92;100284.53;4954416;29;20526;-86
2022/02/16 01:50:42;;;;;;;30.08;13.13;;;;;;;-5.13;69.15;100287.16;4938423;28;20039;-84
2022/02/16 01:53:10;;;;;;;29.33;12.70;;;;;;;-5.12;69.22;100288.88;4938565;29;20102;-86
2022/02/16 01:55:37;;;;;;;29.27;12.95;;;;;;;-5.21;68.78;100280.22;4939382;29;20217;-86
2022/02/16 01:58:03;;;;;;;34.17;14.25;;;;;;;-5.17;69.21;100277.59;4955648;28;20558;-86
2022/02/16 02:00:50;;;;;;;32.88;14.20;;;;;;;-5.22;69.32;100284.56;4947694;28;20050;-87
2022/02/16 02:03:18;;;;;;;29.40;14.65;;;;;;;-5.13;69.32;100287.16;4970804;28;20078;-88
2022/02/16 02:05:51;;;;;;;31.85;14.82;;;;;;;-5.14;69.21;100277.59;4940738;28;20050;-88
2022/02/16 02:08:21;;;;;;;31.30;13.88;;;;;;;-5.14;69.10;100279.34;4954550;28;20125;-86
2022/02/16 02:10:49;;;;;;;30.15;14.20;;;;;;;-5.13;68.93;100274.13;4954538;28;20525;-86
2022/02/16 02:13:16;;;;;;;27.65;13.02;;;;;;;-5.12;68.96;100270.63;4924457;29;20051;-87
2022/02/16 02:15:46;;;;;;;34.40;14.90;;;;;;;-5.25;68.84;100268.06;4941490;29;20047;-88
2022/02/16 02:18:29;;;;;;;30.60;13.65;;;;;;;-5.19;68.91;100273.25;4914668;28;20576;-85
2022/02/16 02:20:55;;;;;;;29.80;13.93;;;;;;;-5.21;69.09;100265.44;4939573;29;20053;-87
2022/02/16 02:23:22;;;;;;;32.72;14.73;;;;;;;-5.21;69.04;100275.88;4954535;28;20039;-89
2022/02/16 02:25:56;;;;;;;33.47;14.35;;;;;;;-5.22;68.94;100278.50;4954368;28;20047;-89
2022/02/16 02:28:24;;;;;;;29.45;13.90;;;;;;;-5.29;68.96;100277.63;4939169;28;20138;-88
2022/02/16 02:30:51;;;;;;;34.78;14.93;;;;;;;-5.28;68.75;100266.31;4924175;28;20074;-87
2022/02/16 02:33:20;;;;;;;28.00;14.03;;;;;;;-5.31;68.91;100289.78;4922620;29;20478;-85
2022/02/16 02:35:51;;;;;;;25.48;13.07;;;;;;;-5.30;69.11;100288.94;4954642;29;20325;-92
2022/02/16 02:38:17;;;;;;;29.20;13.95;;;;;;;-5.29;68.96;100282.84;4940859;29;20058;-87
2022/02/16 02:40:44;;;;;;;29.75;14.18;;;;;;;-5.29;69.17;100290.66;4926287;28;20054;-84
2022/02/16 02:43:10;;;;;;;30.40;13.10;;;;;;;-5.42;69.19;100296.72;4973405;28;20042;-86
2022/02/16 02:45:43;;;;;;;30.42;14.40;;;;;;;-5.42;69.33;100292.38;4944055;28;20517;-85
2022/02/16 02:48:09;;;;;;;34.83;13.13;;;;;;;-5.38;70.00;100301.06;4957122;28;20054;-84
2022/02/16 02:50:35;;;;;;;33.15;14.05;;;;;;;-5.37;69.61;100300.22;4989327;28;20073;-87
2022/02/16 02:53:02;;;;;;;33.85;16.10;;;;;;;-5.34;69.66;100295.00;4957505;28;20047;-88
2022/02/16 02:55:28;;;;;;;37.05;14.68;;;;;;;-5.29;69.42;100298.47;4957196;28;20197;-85
2022/02/16 02:57:54;;;;;;;35.92;15.18;;;;;;;-5.24;69.57;100296.72;4974664;28;20058;-91
2022/02/16 03:00:21;;;;;;;28.70;13.90;;;;;;;-5.21;69.41;100301.94;4944233;28;20101;-83
2022/02/16 03:02:51;;;;;;;64.47;17.75;;;;;;;-5.24;69.47;100298.47;4976420;28;20445;-85
2022/02/16 03:05:17;;;;;;;37.47;15.95;;;;;;;-5.37;69.86;100297.63;4956871;28;20057;-91
2022/02/16 03:07:44;;;;;;;41.25;17.17;;;;;;;-5.25;69.76;100291.53;4941935;28;20050;-86
2022/02/16 03:10:10;;;;;;;37.00;15.18;;;;;;;-5.28;69.79;100300.19;4979580;28;20051;-86
2022/02/16 03:12:37;;;;;;;44.70;15.80;;;;;;;-5.31;70.40;100305.41;4977984;28;20498;-85
2022/02/16 03:15:05;;;;;;;29.58;14.40;;;;;;;-5.33;70.18;100301.94;4960350;28;20046;-80
2022/02/16 03:17:38;;;;;;;37.08;15.57;;;;;;;-5.41;70.64;100295.88;4946836;28;20043;-86
2022/02/16 03:20:06;;;;;;;37.50;16.58;;;;;;;-5.25;70.26;100300.19;4959009;28;20506;-87
2022/02/16 03:22:32;;;;;;;42.38;15.05;;;;;;;-5.31;70.42;100294.97;4956641;28;20086;-84
2022/02/16 03:24:59;;;;;;;41.83;15.20;;;;;;;-5.30;70.71;100303.66;4941129;28;20054;-81
2022/02/16 03:27:25;;;;;;;47.75;15.93;;;;;;;-5.28;70.37;100299.34;4957381;28;20051;-91
2022/02/16 03:30:00;;;;;;;33.53;15.43;;;;;;;-5.26;70.62;100300.22;4942974;28;20053;-86
2022/02/16 03:32:26;;;;;;;38.58;16.20;;;;;;;-5.17;70.82;100298.44;4957628;28;20157;-87
2022/02/16 03:34:52;;;;;;;51.63;17.38;;;;;;;-5.18;70.74;100306.28;4959359;28;20131;-85
2022/02/16 03:37:18;;;;;;;42.65;14.40;;;;;;;-5.15;70.30;100304.53;4969828;28;20066;-88
2022/02/16 03:39:44;;;;;;;43.33;16.90;;;;;;;-5.17;70.43;100319.31;4954832;29;20053;-80
2022/02/16 03:42:10;;;;;;;40.72;16.70;;;;;;;-5.23;70.97;100324.53;4996087;28;20091;-83
2022/02/16 03:44:37;;;;;;;43.47;16.85;;;;;;;-5.25;71.24;100331.47;4972932;28;20055;-83
2022/02/16 03:47:06;;;;;;;36.97;15.25;;;;;;;-5.24;71.21;100322.78;4960642;28;20043;-89
2022/02/16 03:49:32;;;;;;;39.72;15.65;;;;;;;-5.10;71.36;100340.16;4958764;28;20035;-87
2022/02/16 03:52:00;;;;;;;46.92;16.52;;;;;;;-5.08;71.08;100334.06;4961811;28;20071;-91
2022/02/16 03:54:27;;;;;;;45.33;17.10;;;;;;;-4.98;71.53;100342.75;4935606;28;20178;-85
2022/02/16 03:56:53;;;;;;;51.75;16.95;;;;;;;-4.93;71.39;100338.41;4977174;28;20058;-85
2022/02/16 03:59:20;;;;;;;44.78;17.20;;;;;;;-4.93;71.12;100346.22;4980254;28;20051;-87
2022/02/16 04:02:15;;;;;;;46.63;15.73;;;;;;;-5.07;70.94;100348.84;4951637;28;20055;-81
2022/02/16 04:04:42;;;;;;;46.47;16.88;;;;;;;-5.16;71.55;100349.72;4975208;28;20047;-85
2022/02/16 04:07:08;;;;;;;54.95;17.88;;;;;;;-5.15;72.01;100351.47;4975407;28;20038;-91
2022/02/16 04:09:34;;;;;;;51.47;17.63;;;;;;;-5.18;72.22;100350.59;4928130;28;20105;-87
2022/02/16 04:12:00;;;;;;;58.88;16.15;;;;;;;-5.16;72.26;100348.84;4959247;28;20529;-84
2022/02/16 04:14:26;;;;;;;62.80;18.20;;;;;;;-5.12;72.16;100350.56;4942757;28;20039;-87
2022/02/16 04:16:52;;;;;;;53.17;19.48;;;;;;;-5.05;72.00;100354.06;4977883;28;20057;-90
2022/02/16 04:19:18;;;;;;;95.75;22.85;;;;;;;-5.01;72.13;100340.16;4951751;28;20131;-95
2022/02/16 04:21:45;;;;;;;56.75;17.75;;;;;;;-4.99;71.94;100343.63;4931017;28;20043;-90
2022/02/16 04:24:10;;;;;;;62.03;19.10;;;;;;;-5.04;71.49;100334.94;4946107;28;20038;-86
2022/02/16 04:26:36;;;;;;;57.10;17.95;;;;;;;-5.08;71.59;100322.78;4967439;28;20069;-89
2022/02/16 04:29:03;;;;;;;57.53;18.17;;;;;;;-4.96;71.82;100343.63;4964104;28;20047;-88
2022/02/16 04:31:35;;;;;;;51.92;18.48;;;;;;;-4.96;71.58;100333.22;4954376;28;20138;-90
2022/02/16 04:34:02;;;;;;;75.15;19.10;;;;;;;-4.88;71.77;100347.09;4933603;28;20414;-88
2022/02/16 04:36:28;;;;;;;72.13;19.50;;;;;;;-4.93;71.83;100339.28;4935905;28;20054;-93
2022/02/16 04:38:59;;;;;;;62.55;17.27;;;;;;;-4.85;71.49;100346.19;4948358;28;20057;-87
2022/02/16 04:41:27;;;;;;;43.10;16.25;;;;;;;-4.84;71.55;100341.00;4978801;28;20053;-89
2022/02/16 04:43:53;;;;;;;56.75;19.35;;;;;;;-4.85;71.22;100339.28;4949650;28;20042;-88
2022/02/16 04:46:19;;;;;;;58.05;16.75;;;;;;;-4.94;71.48;100347.09;4966856;28;20050;-90
2022/02/16 04:48:46;;;;;;;53.05;17.23;;;;;;;-4.95;71.51;100361.00;4965859;28;20049;-86
2022/02/16 04:51:13;;;;;;;55.00;17.48;;;;;;;-4.93;71.38;100344.50;4996524;28;20074;-89
2022/02/16 04:53:39;;;;;;;53.95;17.05;;;;;;;-4.84;71.17;100343.63;4962240;28;20053;-86
2022/02/16 04:56:06;;;;;;;54.67;16.83;;;;;;;-4.85;71.38;100346.19;4976479;28;20485;-89
2022/02/16 04:58:34;;;;;;;51.60;17.35;;;;;;;-4.80;70.65;100344.47;4959928;28;20406;-88
2022/02/16 05:01:00;;;;;;;42.28;16.35;;;;;;;-4.64;71.00;100352.25;4963366;28;20126;-85
2022/02/16 05:03:30;;;;;;;41.00;14.93;;;;;;;-4.53;70.20;100353.97;4977209;28;20044;-93
2022/02/16 05:05:57;;;;;;;49.50;16.25;;;;;;;-4.62;70.08;100344.44;4966290;28;20050;-93
2022/02/16 05:08:25;;;;;;;49.40;17.60;;;;;;;-4.46;69.74;100345.25;4932316;28;20046;-89
2022/02/16 05:10:51;;;;;;;45.75;16.55;;;;;;;-4.35;69.50;100350.47;4976304;28;20406;-89
2022/02/16 05:13:26;;;;;;;36.72;14.65;;;;;;;-4.44;69.24;100344.41;4962009;28;20049;-88
2022/02/16 05:15:53;;;;;;;43.65;16.05;;;;;;;-4.42;69.25;100339.16;4959457;28;20051;-87
2022/02/16 05:18:20;;;;;;;39.78;13.98;;;;;;;-4.34;68.51;100344.34;4976691;28;20413;-91
2022/02/16 05:20:51;;;;;;;37.60;14.57;;;;;;;-4.42;69.00;100345.25;4962568;28;20046;-86
2022/02/16 05:23:17;;;;;;;39.33;15.55;;;;;;;-4.31;68.87;100353.03;4958252;28;20125;-88
2022/02/16 05:25:46;;;;;;;38.55;14.82;;;;;;;-4.19;68.30;100345.16;4913914;28;20051;-91
2022/02/16 05:28:13;;;;;;;33.78;13.80;;;;;;;-4.10;67.75;100344.25;4963799;28;20050;-91
2022/02/16 05:30:39;;;;;;;40.67;16.23;;;;;;;-3.98;67.65;100354.66;4962376;28;20105;-87
2022/02/16 05:33:06;;;;;;;36.42;14.60;;;;;;;-4.00;67.36;100355.53;4959582;28;20136;-86
2022/02/16 05:35:32;;;;;;;42.72;15.05;;;;;;;-3.94;67.07;100350.28;4979795;28;20106;-84
2022/02/16 05:37:58;;;;;;;36.72;13.60;;;;;;;-3.99;66.69;100349.41;4979683;28;20213;-88
2022/02/16 05:40:27;;;;;;;54.88;14.85;;;;;;;-4.02;66.50;100359.91;4947597;28;20074;-84
2022/02/16 05:42:53;;;;;;;36.38;13.68;;;;;;;-4.15;66.70;100362.53;4988101;28;20125;-88
2022/02/16 05:45:21;;;;;;;31.80;12.63;;;;;;;-4.19;66.82;100371.25;4962277;28;20046;-89
2022/02/16 05:47:47;;;;;;;31.30;12.88;;;;;;;-4.16;66.94;100355.59;4958151;28;20066;-88
2022/02/16 05:50:14;;;;;;;36.15;14.52;;;;;;;-4.07;66.35;100356.44;4975282;28;20051;-88
2022/02/16 05:52:40;;;;;;;34.13;14.00;;;;;;;-3.86;66.69;100365.91;4974342;28;20050;-88
2022/02/16 05:55:06;;;;;;;39.90;16.08;;;;;;;-3.66;66.50;100367.53;4960434;28;20101;-84
2022/02/16 05:57:35;;;;;;;36.78;13.98;;;;;;;-3.49;65.64;100359.59;4961130;28;20538;-86
2022/02/16 06:00:03;;;;;;;36.08;14.48;;;;;;;-3.31;64.80;100361.22;4945491;28;20038;-89
2022/02/16 06:02:38;;;;;;;38.08;11.63;;;;;;;-3.24;64.29;100365.50;4962833;28;20577;-86
2022/02/16 06:05:08;;;;;;;35.50;14.98;;;;;;;-3.31;63.88;100362.94;4960626;28;20046;-88
2022/02/16 06:07:34;;;;;;;35.08;15.32;;;;;;;-3.21;63.48;100365.47;4960444;28;20065;-86
2022/02/16 06:10:00;;;;;;;32.88;14.10;;;;;;;-3.21;63.39;100368.09;4960592;28;20133;-87
2022/02/16 06:12:28;;;;;;;36.13;14.55;;;;;;;-3.14;63.43;100365.44;4977706;28;20520;-88
2022/02/16 06:14:54;;;;;;;34.60;13.48;;;;;;;-3.11;62.84;100363.66;4944960;28;20134;-86
2022/02/16 06:17:21;;;;;;;31.92;12.43;;;;;;;-3.23;62.70;100366.38;4960422;28;20080;-87
2022/02/16 06:19:50;;;;;;;35.75;14.88;;;;;;;-3.30;62.49;100370.78;4960647;28;20046;-85
2022/02/16 06:22:16;;;;;;;33.80;13.80;;;;;;;-3.06;62.48;100368.84;4976346;28;20142;-85
2022/02/16 06:24:42;;;;;;;36.47;14.95;;;;;;;-2.91;61.92;100379.19;4992741;28;20103;-85
2022/02/16 06:27:09;;;;;;;30.58;13.05;;;;;;;-2.90;61.75;100380.91;4960214;28;20154;-86
2022/02/16 06:29:35;;;;;;;35.92;14.50;;;;;;;-2.90;61.54;100380.91;4960248;28;20051;-86
2022/02/16 06:32:25;;;;;;;30.75;13.45;;;;;;;-2.81;61.46;100380.84;4947338;28;20092;-86
2022/02/16 06:34:54;;;;;;;32.95;14.48;;;;;;;-2.64;61.34;100387.66;4960365;28;20121;-86
2022/02/16 06:37:20;;;;;;;39.38;15.23;;;;;;;-2.51;60.75;100384.94;4975929;28;20522;-84
2022/02/16 06:39:46;;;;;;;35.10;14.95;;;;;;;-2.52;60.63;100392.78;4960061;28;20127;-85
2022/02/16 06:42:14;;;;;;;32.38;14.30;;;;;;;-2.57;60.77;100395.44;4965119;28;20204;-89
2022/02/16 06:44:40;;;;;;;31.98;13.52;;;;;;;-2.54;60.80;100402.41;4950994;28;20070;-86
2022/02/16 06:47:07;;;;;;;30.77;13.43;;;;;;;-2.52;60.18;100411.09;4965134;28;20128;-86
2022/02/16 06:49:33;;;;;;;34.47;14.02;;;;;;;-2.61;60.19;100413.81;4981432;28;20038;-86
2022/02/16 06:52:03;;;;;;;29.98;13.25;;;;;;;-2.57;60.12;100423.38;4981751;28;20073;-88
2022/02/16 06:54:31;;;;;;;29.13;13.27;;;;;;;-2.58;60.21;100408.56;4947751;28;20069;-85
2022/02/16 06:56:58;;;;;;;32.72;13.85;;;;;;;-2.58;60.16;100419.03;4963406;28;20066;-87
2022/02/16 06:59:50;;;;;;;32.63;14.30;;;;;;;-2.28;60.22;100418.72;4968452;28;20049;-85
2022/02/16 07:02:17;;;;;;;30.25;13.07;;;;;;;-2.23;58.77;100416.91;4995736;28;20056;-89
2022/02/16 07:04:42;;;;;;;33.10;14.48;;;;;;;-2.20;59.25;100411.66;4979459;28;20042;-85
2022/02/16 07:07:09;;;;;;;29.25;14.10;;;;;;;-2.17;59.00;100394.19;4963313;28;20057;-85
2022/02/16 07:09:35;;;;;;;29.02;13.38;;;;;;;-2.03;58.70;100413.19;4965552;28;20406;-85
2022/02/16 07:12:01;;;;;;;28.02;13.35;;;;;;;-2.04;58.12;100403.63;4998479;28;20046;-85
2022/02/16 07:14:28;;;;;;;24.63;12.27;;;;;;;-1.96;58.45;100412.25;4979470;28;20468;-86
2022/02/16 07:16:56;;;;;;;26.17;13.15;;;;;;;-1.97;58.15;100402.66;4968717;28;20402;-86
2022/02/16 07:19:25;;;;;;;27.88;13.32;;;;;;;-1.84;57.35;100408.59;5001505;28;20046;-87
2022/02/16 07:22:11;;;;;;;26.60;13.30;;;;;;;-1.98;57.66;100406.16;5004774;28;20057;-84
2022/02/16 07:24:37;;;;;;;29.73;12.65;;;;;;;-1.75;57.59;100414.59;4971519;28;20022;-84
2022/02/16 07:27:03;;;;;;;25.90;12.68;;;;;;;-1.64;57.53;100411.00;4967386;28;20070;-85
2022/02/16 07:29:29;;;;;;;29.67;14.00;;;;;;;-1.59;57.34;100410.03;4982037;28;20090;-87
2022/02/16 07:31:56;;;;;;;24.58;12.48;;;;;;;-1.41;57.23;100419.41;4963726;28;20053;-85
2022/02/16 07:34:25;;;;;;;25.27;13.10;;;;;;;-1.54;56.68;100420.47;4962926;28;20046;-86
2022/02/16 07:36:51;;;;;;;28.05;13.13;;;;;;;-1.42;56.88;100409.81;4963278;28;20053;-85
2022/02/16 07:39:18;;;;;;;27.08;12.43;;;;;;;-1.38;56.43;100422.00;4982138;28;20053;-87
2022/02/16 07:41:45;;;;;;;29.60;13.48;;;;;;;-1.46;56.42;100405.50;4947100;28;20516;-88
2022/02/16 07:44:25;;;;;;;26.33;12.52;;;;;;;-1.20;56.23;100409.47;4951184;28;20481;-88
2022/02/16 07:46:56;;;;;;;26.75;13.95;;;;;;;-1.34;55.45;100414.94;4965431;28;20054;-87
2022/02/16 07:49:23;;;;;;;26.30;13.13;;;;;;;-1.18;55.81;100413.81;4962979;28;20498;-86
2022/02/16 07:52:08;;;;;;;25.85;12.00;;;;;;;-1.04;54.75;100408.38;4996120;28;20050;-85
2022/02/16 07:54:56;;;;;;;25.07;11.90;;;;;;;-0.89;55.24;100404.63;4951537;28;20387;-86
2022/02/16 07:57:32;;;;;;;26.17;13.00;;;;;;;-0.77;55.70;100407.06;4947858;28;20057;-89
2022/02/16 07:59:58;;;;;;;24.55;12.73;;;;;;;-0.78;54.97;100411.44;4979184;28;20587;-89
2022/02/16 08:02:25;;;;;;;26.23;12.00;;;;;;;-0.68;54.71;100406.03;4948124;28;20046;-86
2022/02/16 08:04:51;;;;;;;27.77;12.65;;;;;;;-0.80;53.86;100413.22;4962964;28;20038;-86
2022/02/16 08:07:17;;;;;;;25.63;12.80;;;;;;;-0.68;54.24;100406.03;4962100;28;20042;-87
2022/02/16 08:09:43;;;;;;;25.10;13.38;;;;;;;-0.64;54.38;100405.06;4962180;28;20046;-87
2022/02/16 08:12:12;;;;;;;26.58;13.05;;;;;;;-0.54;54.37;100406.66;4978178;28;20050;-87
2022/02/16 08:14:39;;;;;;;28.98;13.75;;;;;;;-0.36;53.67;100408.09;4946099;28;20038;-86
2022/02/16 08:17:06;;;;;;;30.38;14.48;;;;;;;-0.30;54.15;100413.22;4978096;28;20049;-85
2022/02/16 08:19:32;;;;;;;23.75;12.40;;;;;;;-0.17;53.39;100406.00;4995273;28;20046;-86
2022/02/16 08:21:59;;;;;;;21.70;11.23;;;;;;;-0.27;52.36;100408.78;4978150;28;20052;-88
2022/02/16 08:24:27;;;;;;;25.35;11.07;;;;;;;-0.35;52.77;100415.94;4962292;28;20050;-86
2022/02/16 08:26:59;;;;;;;22.52;11.85;;;;;;;-0.39;52.63;100405.50;4977430;28;20050;-84
2022/02/16 08:29:26;;;;;;;26.08;12.85;;;;;;;-0.29;52.83;100410.56;4978240;28;20382;-86
2022/02/16 08:31:54;;;;;;;27.15;13.15;;;;;;;-0.29;52.29;100405.31;4962239;28;20044;-86
2022/02/16 08:34:40;;;;;;;29.58;12.43;;;;;;;-0.47;53.27;100399.53;4967206;28;20046;-88
2022/02/16 08:37:10;;;;;;;23.90;12.40;;;;;;;-0.48;52.75;100403.94;4964833;28;20050;-88
2022/02/16 08:39:36;;;;;;;26.65;12.93;;;;;;;-0.63;53.11;100398.94;4964395;28;20042;-87
2022/02/16 08:42:02;;;;;;;20.08;11.48;;;;;;;-0.56;53.51;100409.31;4977757;28;20493;-87
2022/02/16 08:44:30;;;;;;;22.65;11.82;;;;;;;-0.58;53.35;100402.34;4930767;28;20068;-87
2022/02/16 08:46:57;;;;;;;23.77;12.00;;;;;;;-0.81;53.57;100400.13;4978609;28;20057;-89
2022/02/16 08:49:23;;;;;;;24.00;11.75;;;;;;;-0.71;53.45;100406.06;4961842;28;20132;-88
2022/02/16 08:51:49;;;;;;;21.77;11.63;;;;;;;-0.60;53.55;100414.63;4962119;28;20089;-88
2022/02/16 08:54:15;;;;;;;28.83;11.77;;;;;;;-0.57;53.67;100415.44;4977385;28;20050;-88
2022/02/16 08:56:44;;;;;;;24.58;12.65;;;;;;;-0.55;52.96;100415.44;4958181;28;20055;-89
2022/02/16 08:59:10;;;;;;;22.85;11.70;;;;;;;-0.31;52.85;100422.84;4943190;28;20049;-89
2022/02/16 09:01:36;;;;;;;31.27;14.27;;;;;;;-0.25;53.29;100417.50;4974205;28;20093;-88
2022/02/16 09:04:03;;;;;;;25.02;12.40;;;;;;;-0.39;53.02;100419.50;4958473;28;20070;-87
2022/02/16 09:06:29;;;;;;;23.17;12.48;;;;;;;-0.31;53.22;100414.97;4958265;28;20293;-87
2022/02/16 09:08:56;;;;;;;26.02;12.93;;;;;;;-0.28;52.64;100425.44;4958229;28;20133;-85
2022/02/16 09:11:22;;;;;;;25.33;13.15;;;;;;;-0.36;53.12;100423.84;4958385;28;20058;-86
2022/02/16 09:13:48;;;;;;;28.45;12.80;;;;;;;-0.39;53.06;100424.75;4974901;28;20087;-86
2022/02/16 09:16:14;;;;;;;31.48;13.70;;;;;;;-0.38;53.21;100426.50;4975133;28;20051;-87
2022/02/16 09:18:40;;;;;;;25.38;12.77;;;;;;;-0.34;53.59;100430.81;4975126;28;20454;-86
2022/02/16 09:21:06;;;;;;;24.90;12.82;;;;;;;-0.45;53.59;100429.25;4974012;28;20503;-86
2022/02/16 09:23:33;;;;;;;25.05;12.95;;;;;;;-0.42;53.54;100424.81;4975345;28;20110;-86
2022/02/16 09:26:01;;;;;;;30.90;13.65;;;;;;;-0.48;53.75;100422.31;4973720;28;20058;-86
2022/02/16 09:28:28;;;;;;;28.10;14.38;;;;;;;-0.42;53.46;100416.94;4958208;28;20129;-87
2022/02/16 09:30:56;;;;;;;28.33;12.90;;;;;;;-0.26;52.96;100421.03;4958338;28;20046;-87
2022/02/16 09:33:22;;;;;;;25.92;13.10;;;;;;;-0.27;52.69;100421.03;4946686;28;20049;-85
2022/02/16 09:35:50;;;;;;;27.42;12.88;;;;;;;-0.24;53.04;100428.88;4967084;28;20054;-85
2022/02/16 09:38:16;;;;;;;29.80;12.70;;;;;;;-0.50;52.68;100422.31;4967576;28;20042;-84
2022/02/16 09:40:45;;;;;;;26.38;12.43;;;;;;;-0.50;53.41;100419.69;4982963;28;20047;-86
2022/02/16 09:43:12;;;;;;;23.10;12.25;;;;;;;-0.64;53.79;100431.34;4968324;28;20077;-83
2022/02/16 09:45:38;;;;;;;28.65;13.20;;;;;;;-0.48;53.26;100419.69;4953952;28;20061;-86
2022/02/16 09:48:05;;;;;;;29.52;14.77;;;;;;;-0.44;53.50;100431.88;4985959;28;20055;-86
2022/02/16 09:50:31;;;;;;;32.15;14.02;;;;;;;-0.37;53.52;100428.25;4977633;28;20050;-86
2022/02/16 09:52:58;;;;;;;30.00;13.85;;;;;;;-0.48;52.89;100430.19;4978815;28;20045;-86
2022/02/16 09:55:24;;;;;;;29.23;13.90;;;;;;;-0.43;53.45;100441.47;4980429;28;20062;-86
2022/02/16 09:57:50;;;;;;;35.58;14.80;;;;;;;-0.46;53.29;100428.38;4982404;28;20526;-87
2022/02/16 10:00:16;;;;;;;34.10;14.00;;;;;;;-0.58;53.26;100426.00;5001138;28;20133;-88
2022/02/16 10:02:44;;;;;;;29.15;12.98;;;;;;;-0.70;53.87;100434.09;4984275;28;20120;-87
2022/02/16 10:05:11;;;;;;;31.42;13.60;;;;;;;-0.60;53.87;100433.91;4966886;28;20052;-84
2022/02/16 10:07:46;;;;;;;33.97;15.68;;;;;;;-0.68;54.26;100429.66;4985796;28;20114;-87
2022/02/16 10:10:18;;;;;;;30.85;15.32;;;;;;;-0.57;54.27;100419.84;4954463;28;20089;-87
2022/02/16 10:12:47;;;;;;;33.50;15.30;;;;;;;-0.65;53.95;100426.97;4968796;28;20051;-86
2022/02/16 10:15:15;;;;;;;38.88;17.58;;;;;;;-0.89;54.27;100431.75;4964128;28;20045;-87
2022/02/16 10:17:41;;;;;;;39.53;17.05;;;;;;;-0.75;54.39;100436.78;4982509;28;20078;-86
2022/02/16 10:20:09;;;;;;;29.92;14.25;;;;;;;-0.78;54.21;100424.56;4970501;28;20054;-87
2022/02/16 10:22:48;;;;;;;29.83;13.88;;;;;;;-0.84;54.67;100416.78;4971101;28;20561;-86
2022/02/16 10:25:24;;;;;;;19.80;10.77;;;;;;;-0.87;54.53;100422.06;4981329;28;20046;-87
2022/02/16 10:28:07;;;;;;;28.02;13.18;;;;;;;-0.74;54.73;100428.88;4983232;28;20105;-87
2022/02/16 10:30:34;;;;;;;25.95;12.48;;;;;;;-0.80;54.15;100428.97;4982245;28;20046;-86
2022/02/16 10:33:26;;;;;;;24.90;12.40;;;;;;;-0.95;54.64;100415.22;4997058;28;20051;-84
2022/02/16 10:36:01;;;;;;;23.08;12.70;;;;;;;-0.99;54.71;100430.16;4993840;28;20044;-85
2022/02/16 10:38:28;;;;;;;23.88;12.55;;;;;;;-0.99;55.39;100436.25;4981201;28;20038;-85
2022/02/16 10:41:05;;;;;;;25.50;12.93;;;;;;;-0.81;54.93;100431.63;4970203;28;20449;-87
2022/02/16 10:43:36;;;;;;;24.35;12.77;;;;;;;-1.00;55.04;100426.66;4966661;28;20066;-84
2022/02/16 10:46:02;;;;;;;25.52;12.23;;;;;;;-0.85;55.02;100425.56;4949625;28;20097;-86
2022/02/16 10:48:29;;;;;;;24.08;11.65;;;;;;;-0.79;54.40;100430.72;4965707;28;20485;-87
2022/02/16 10:50:57;;;;;;;26.23;12.05;;;;;;;-0.92;54.21;100431.78;4981581;28;20125;-85
2022/02/16 10:53:30;;;;;;;22.20;11.50;;;;;;;-1.12;54.59;100426.00;4998311;28;20050;-86
2022/02/16 10:55:56;;;;;;;29.80;13.20;;;;;;;-1.00;54.65;100434.53;4964860;28;20050;-88
2022/02/16 10:58:26;;;;;;;22.67;11.23;;;;;;;-0.99;54.23;100427.53;4982807;28;20084;-88
2022/02/16 11:00:53;;;;;;;27.95;12.43;;;;;;;-1.18;54.77;100436.56;4967347;28;20102;-87
2022/02/16 11:03:31;;;;;;;23.63;11.63;;;;;;;-1.11;54.73;100444.31;4997142;28;20064;-82
2022/02/16 11:05:59;;;;;;;21.20;11.07;;;;;;;-1.17;54.79;100427.81;5014325;28;20133;-86
2022/02/16 11:08:27;;;;;;;21.98;11.65;;;;;;;-1.29;54.76;100441.97;4981413;28;20458;-87
2022/02/16 11:10:54;;;;;;;31.35;12.93;;;;;;;-1.36;55.06;100433.31;4963723;28;20049;-86
2022/02/16 11:13:26;;;;;;;23.75;11.77;;;;;;;-1.44;55.46;100447.44;4979445;28;20077;-86
2022/02/16 11:15:53;;;;;;;28.77;13.02;;;;;;;-1.49;55.67;100431.75;4964300;28;20168;-86